Reportages photos

Connexion

Poussines

POUSSINES FOULEES GUINOISES du 28/03/15 (Réelle 1,55)
Rang Dossard Nom Prénom Temps Cat Rang Cat Ecart Ecart Cat Club Vitesse Km/h Temps au Km
1 600 LUCAS RAPHAELLE 00:06:51 POF 1 00:00:00 00:00:00 BLANC NEZ TRIATHLON 13,577 04:25
2 591 MASSON GABRIELLE 00:06:54 POF 2 00:00:03 00:00:03 BONNINGUES LES CALAIS ATHLETISME 13,478 04:27
3 605 PILLE-YARD ZIA 00:07:01 POF 3 00:00:10 00:00:10 LYS CALAIS TRIATHLON 13,254 04:32
4 632 MORICE NOEMIE 00:07:26 POF 4 00:00:35 00:00:35 ATHLETISME CLUB OUTREAU 12,511 04:48
5 624 BARON NORA 00:07:29 POF 5 00:00:38 00:00:38 PATRIOTE CROSS DE GUINES 12,428 04:50
6 602 PELLETIER MAME DIARRA 00:07:33 POF 6 00:00:42 00:00:42 SIMENCOURT A.S. 12,318 04:52
7 589 HOFFMANN CAROLINE 00:07:34 POF 7 00:00:43 00:00:43 BONNINGUES LES CALAIS ATHLETISME 12,291 04:53
8 606 LETURGER ZELIE 00:07:40 POF 8 00:00:49 00:00:49 LYS CALAIS TRIATHLON 12,130 04:57
9 12427 LEBON CARLA 00:08:06 POF 9 00:01:15 00:01:15 ATHLETIQUE CLUB CAPELLOIS 11,481 05:14
10 637 DIALLO BANO 00:08:07 POF 10 00:01:16 00:01:16 A C GOUSSAINVILLE 095016 11,458 05:14
11 12308 COMYW MARGAUX 00:08:14 POF 11 00:01:23 00:01:23 11,296 05:19
12 637 DIALLO BANO 00:08:15 POF 12 00:01:24 00:01:24 A C GOUSSAINVILLE 095016 11,273 05:19
13 630 RENAUX CHLOE 00:08:17 POF 13 00:01:26 00:01:26 PATRIOTE CROSS DE GUINES 11,227 05:21
14 590 DRAYS SUZIE 00:08:18 POF 14 00:01:27 00:01:27 BONNINGUES LES CALAIS ATHLETISME 11,205 05:21
15 635 ABOA SIKA 00:08:19 POF 15 00:01:28 00:01:28 A C GOUSSAINVILLE 095016 11,182 05:22
16 609 HENNUYER SOPHIE 00:08:21 POF 16 00:01:30 00:01:30 11,138 05:23
17 636 SAINT-OMER ELISE 00:08:22 POF 17 00:01:31 00:01:31 A C GOUSSAINVILLE 095016 11,116 05:24
18 592 DEVEY LALOU 00:08:24 POF 18 00:01:33 00:01:33 BONNINGUES LES CALAIS ATHLETISME 11,071 05:25
19 12303 DELATTRE LOLITA 00:08:25 POF 19 00:01:34 00:01:34 11,050 05:26
20 597 QUEVAL LOLA 00:08:26 POF 20 00:01:35 00:01:35 BLANC NEZ TRIATHLON 11,028 05:26
21 627 GARCIA ELISE 00:08:26 POF 21 00:01:35 00:01:35 PATRIOTE CROSS DE GUINES 11,028 05:26
22 625 BUCHER ELISA 00:08:39 POF 22 00:01:48 00:01:48 PATRIOTE CROSS DE GUINES 10,751 05:35
23 631 TIRMARCHE JULIETTE 00:08:40 POF 23 00:01:49 00:01:49 PATRIOTE CROSS DE GUINES 10,731 05:35
24 601 MAGRIT JEANNE 00:08:51 POF 24 00:02:00 00:02:00 MARQUISE 10,508 05:43
25 594 BLOUIN LILY-ROSE 00:08:59 POF 25 00:02:08 00:02:08 BONNINGUES LES CALAIS ATHLETISME 10,353 05:48
26 12444 CARBONNEL AZELINE 00:09:03 POF 26 00:02:12 00:02:12 10,276 05:50
27 12309 RIBEYRE LEA 00:09:06 POF 27 00:02:15 00:02:15 10,220 05:52
28 628 JANUSZ ELSA 00:09:15 POF 28 00:02:24 00:02:24 PATRIOTE CROSS DE GUINES 10,054 05:58
29 12314 BLAUME CHLOE 00:09:35 POF 29 00:02:44 00:02:44 9,704 06:11
30 596 BOCQUELET MARINE 00:09:45 POF 30 00:02:54 00:02:54 BONNINGUES LES CALAIS ATHLETISME 9,538 06:17
31 12307 PETITPRE MARINE 00:09:46 POF 31 00:02:55 00:02:55 9,522 06:18
32 12313 MICHEL FIONA 00:10:11 POF 32 00:03:20 00:03:20 9,133 06:34
33 12310 DEWEZ MALIKA 00:10:51 POF 33 00:04:00 00:04:00 8,571 07:00
34 12443 TASSART NOELY 00:10:52 POF 34 00:04:01 00:04:01 8,558 07:01
35 587 DANDRES LILOU 00:10:56 POF 35 00:04:05 00:04:05 8,506 07:03
36 12312 LANIESSE CELIA 00:12:49 POF 36 00:05:58 00:05:58 7,256 08:16
Novembre 2017
Lun Mar Mer Jeu Ven Sam Dim
1
2
3
4
5
6
7
8
9
10
11
12
13
14
15
16
17
18
19
20
21
22
23
24
25
27
28
29
30